Time;durP1;ratioP1;P1;durP2;ratioP2;P2;SDS_P1;SDS_P2;PMS_P1;PMS_P2;Temp;Humidity;BMP_temperature;BMP_pressure;BME280_temperature;BME280_humidity;BME280_pressure;Samples;Min_cycle;Max_cycle;Signal;HPM_P1;HPM_P2
2022/07/28 00:00:34;;;;;;;6.63;1.95;;;;;;;21.02;100.00;101877.81;5078035;28;20105;-54
2022/07/28 00:03:00;;;;;;;5.80;1.50;;;;;;;21.03;100.00;101872.13;5074647;28;20037;-49
2022/07/28 00:05:26;;;;;;;6.97;1.10;;;;;;;20.94;100.00;101876.28;5078954;28;20127;-50
2022/07/28 00:07:52;;;;;;;4.72;1.52;;;;;;;20.88;100.00;101871.81;5077693;28;20056;-51
2022/07/28 00:10:17;;;;;;;7.20;1.38;;;;;;;20.95;100.00;101874.41;5075916;28;20036;-50
2022/07/28 00:12:43;;;;;;;8.18;1.70;;;;;;;20.63;100.00;101875.59;5077878;28;20036;-54
2022/07/28 00:15:10;;;;;;;4.05;1.40;;;;;;;20.74;100.00;101876.66;5078212;28;20037;-50
2022/07/28 00:17:36;;;;;;;3.10;1.10;;;;;;;20.33;100.00;101876.56;5081015;28;20036;-52
2022/07/28 00:20:03;;;;;;;5.80;1.38;;;;;;;20.55;100.00;101871.34;5072157;28;20285;-51
2022/07/28 00:22:28;;;;;;;5.53;1.20;;;;;;;20.32;100.00;101880.34;5075815;28;20052;-52
2022/07/28 00:24:53;;;;;;;8.73;1.83;;;;;;;20.31;100.00;101878.72;5072655;28;20274;-51
2022/07/28 00:27:19;;;;;;;4.78;1.30;;;;;;;20.23;100.00;101873.59;5075328;28;20033;-50
2022/07/28 00:29:45;;;;;;;4.70;1.35;;;;;;;20.51;100.00;101874.78;5073605;28;20037;-53
2022/07/28 00:32:11;;;;;;;2.47;1.40;;;;;;;20.48;100.00;101871.47;5070859;28;20033;-52
2022/07/28 00:34:36;;;;;;;5.57;1.37;;;;;;;20.10;100.00;101864.63;5077927;28;20033;-50
2022/07/28 00:37:02;;;;;;;9.55;1.60;;;;;;;19.90;100.00;101863.03;5077646;28;20113;-49
2022/07/28 00:39:27;;;;;;;6.93;1.30;;;;;;;19.75;100.00;101857.22;5076374;28;20065;-53
2022/07/28 00:41:53;;;;;;;5.63;1.50;;;;;;;19.79;100.00;101855.69;5076948;28;20037;-50
2022/07/28 00:44:18;;;;;;;5.95;1.35;;;;;;;19.81;100.00;101855.47;5074525;28;20052;-51
2022/07/28 00:46:44;;;;;;;4.60;1.70;;;;;;;19.95;100.00;101858.81;5069159;28;20052;-51
2022/07/28 00:49:09;;;;;;;6.50;1.88;;;;;;;19.88;100.00;101859.75;5072440;28;20021;-51
2022/07/28 00:51:36;;;;;;;7.63;1.98;;;;;;;19.85;100.00;101849.34;5070719;28;20060;-49
2022/07/28 00:54:02;;;;;;;7.22;1.33;;;;;;;19.84;100.00;101863.97;5073569;28;20056;-50
2022/07/28 00:56:27;;;;;;;6.50;1.83;;;;;;;20.05;100.00;101861.78;5072621;28;20067;-51
2022/07/28 00:58:53;;;;;;;4.18;1.95;;;;;;;20.02;100.00;101859.53;5076885;28;20084;-49
2022/07/28 01:01:20;;;;;;;7.97;1.40;;;;;;;19.66;100.00;101855.91;5073052;28;20066;-52
2022/07/28 01:03:52;;;;;;;7.83;2.00;;;;;;;19.67;100.00;101852.13;5078092;28;20044;-51
2022/07/28 01:06:30;;;;;;;6.23;1.60;;;;;;;19.62;100.00;101852.81;5077887;28;20299;-53
2022/07/28 01:09:24;;;;;;;5.87;1.90;;;;;;;19.62;100.00;101853.66;5075615;28;20269;-48
2022/07/28 01:12:24;;;;;;;3.30;1.83;;;;;;;19.59;100.00;101850.56;5075285;28;20304;-51
2022/07/28 01:15:00;;;;;;;7.00;1.70;;;;;;;19.43;100.00;101849.34;5070893;28;20266;-49
2022/07/28 01:17:37;;;;;;;4.23;1.50;;;;;;;19.27;100.00;101853.53;5068455;28;20282;-53
2022/07/28 01:20:24;;;;;;;3.43;1.43;;;;;;;19.63;100.00;101841.75;5069856;28;20273;-51
2022/07/28 01:23:10;;;;;;;5.60;1.42;;;;;;;19.59;100.00;101839.72;5070895;28;20361;-50
2022/07/28 01:26:06;;;;;;;5.27;1.50;;;;;;;19.70;100.00;101840.81;5061837;28;20096;-53
2022/07/28 01:29:09;;;;;;;4.73;1.50;;;;;;;19.56;100.00;101841.00;5079945;28;20274;-52
2022/07/28 01:31:41;;;;;;;4.43;1.50;;;;;;;19.57;100.00;101841.84;5078224;28;20266;-51
2022/07/28 01:34:13;;;;;;;4.97;1.77;;;;;;;19.38;100.00;101841.91;5073636;28;20258;-51
2022/07/28 01:36:44;;;;;;;2.80;1.50;;;;;;;19.51;100.00;101830.03;5076003;28;20352;-51
2022/07/28 01:39:12;;;;;;;5.23;1.63;;;;;;;19.47;100.00;101837.78;5078603;28;20289;-54
2022/07/28 01:41:42;;;;;;;6.90;1.60;;;;;;;19.53;100.00;101827.91;5076219;28;20274;-51
2022/07/28 01:44:15;;;;;;;10.50;2.40;;;;;;;19.49;100.00;101834.84;5072566;28;20294;-48
2022/07/28 01:46:44;;;;;;;8.73;2.10;;;;;;;19.51;100.00;101827.31;5066974;28;20386;-48
2022/07/28 01:49:09;;;;;;;9.77;1.80;;;;;;;19.38;100.00;101822.09;5070356;28;20362;-48
2022/07/28 01:51:36;;;;;;;2.22;1.15;;;;;;;19.65;100.00;101821.69;5068472;28;20270;-51
2022/07/28 01:54:04;;;;;;;3.87;1.30;;;;;;;19.39;100.00;101826.47;5074009;28;20059;-48
2022/07/28 01:56:32;;;;;;;5.50;1.20;;;;;;;19.56;100.00;101822.00;5075616;28;20362;-48
2022/07/28 01:59:04;;;;;;;5.23;1.57;;;;;;;19.48;100.00;101817.75;5080923;28;20274;-50
2022/07/28 02:01:34;;;;;;;5.30;2.00;;;;;;;19.37;100.00;101813.13;5072207;28;20261;-52
2022/07/28 02:04:01;;;;;;;3.57;1.50;;;;;;;19.01;100.00;101818.41;5072287;28;20266;-52
2022/07/28 02:06:28;;;;;;;5.20;1.60;;;;;;;19.18;100.00;101817.78;5075424;28;20292;-48
2022/07/28 02:08:55;;;;;;;8.23;1.60;;;;;;;19.44;100.00;101815.75;5072858;28;20266;-47
2022/07/28 02:11:38;;;;;;;6.23;1.50;;;;;;;19.43;100.00;101819.50;5070954;28;20258;-49
2022/07/28 02:14:11;;;;;;;4.43;1.93;;;;;;;19.49;100.00;101813.16;5079959;28;20341;-53
2022/07/28 02:16:42;;;;;;;10.93;1.53;;;;;;;19.57;100.00;101810.09;5078128;28;20321;-50
2022/07/28 02:19:08;;;;;;;5.17;1.40;;;;;;;19.59;100.00;101801.75;5071559;28;20301;-52
2022/07/28 02:21:35;;;;;;;4.30;1.40;;;;;;;19.63;100.00;101798.34;5072205;28;20744;-49
2022/07/28 02:24:03;;;;;;;4.10;1.40;;;;;;;19.42;100.00;101805.09;5074595;28;20035;-51
2022/07/28 02:26:36;;;;;;;3.07;1.40;;;;;;;19.29;100.00;101802.59;5076890;28;20269;-51
2022/07/28 02:29:05;;;;;;;3.20;1.27;;;;;;;19.15;100.00;101805.50;5075384;28;20272;-49
2022/07/28 02:31:43;;;;;;;3.57;1.30;;;;;;;19.20;100.00;101804.81;5071076;28;20309;-51
2022/07/28 02:34:12;;;;;;;10.43;2.10;;;;;;;19.48;100.00;101806.06;5073372;28;20266;-51
2022/07/28 02:36:41;;;;;;;4.67;1.37;;;;;;;19.14;100.00;101800.28;5074279;28;20261;-51
2022/07/28 02:39:10;;;;;;;4.77;2.03;;;;;;;19.19;100.00;101803.16;5073386;28;20288;-48
2022/07/28 02:41:40;;;;;;;15.20;2.63;;;;;;;19.13;100.00;101794.06;5072510;28;20326;-53
2022/07/28 02:44:12;;;;;;;5.00;1.27;;;;;;;19.28;100.00;101790.91;5072260;28;20325;-52
2022/07/28 02:46:45;;;;;;;6.23;1.63;;;;;;;19.32;100.00;101789.41;5077344;28;20270;-53
2022/07/28 02:49:20;;;;;;;16.27;1.77;;;;;;;19.32;100.00;101792.09;5072634;28;20268;-52
2022/07/28 02:51:48;;;;;;;7.00;1.57;;;;;;;19.33;100.00;101793.75;5074290;28;20268;-53
2022/07/28 02:54:16;;;;;;;4.07;1.53;;;;;;;19.29;100.00;101795.28;5075836;28;20304;-48
2022/07/28 02:56:42;;;;;;;6.20;1.30;;;;;;;19.23;100.00;101795.38;5074249;28;20257;-49
2022/07/28 02:59:09;;;;;;;4.05;1.63;;;;;;;19.17;100.00;101797.97;5076182;28;20295;-49
2022/07/28 03:01:35;;;;;;;3.37;1.40;;;;;;;19.13;100.00;101798.63;5073616;28;20088;-49
2022/07/28 03:04:01;;;;;;;5.65;1.52;;;;;;;19.16;100.00;101795.50;5070203;28;20274;-49
2022/07/28 03:06:26;;;;;;;15.90;2.17;;;;;;;19.03;100.00;101799.19;5076152;28;20044;-47
2022/07/28 03:08:52;;;;;;;5.40;1.57;;;;;;;19.04;100.00;101803.56;5076883;28;20025;-48
2022/07/28 03:11:18;;;;;;;4.27;1.67;;;;;;;19.12;100.00;101803.25;5078814;28;20067;-48
2022/07/28 03:13:43;;;;;;;2.67;1.23;;;;;;;19.09;100.00;101802.88;5078049;28;20029;-51
2022/07/28 03:16:09;;;;;;;3.75;1.35;;;;;;;19.10;100.00;101799.94;5076276;28;20032;-47
2022/07/28 03:18:34;;;;;;;6.35;1.52;;;;;;;19.19;100.00;101795.03;5074870;28;20109;-50
2022/07/28 03:21:00;;;;;;;11.03;2.00;;;;;;;19.15;100.00;101796.56;5075912;28;20060;-50
2022/07/28 03:23:42;;;;;;;5.60;1.87;;;;;;;19.01;100.00;101804.84;5079363;28;20044;-49
2022/07/28 03:26:19;;;;;;;4.53;1.83;;;;;;;19.07;100.00;101800.41;5077851;28;20057;-50
2022/07/28 03:28:45;;;;;;;;;;;;;;;19.21;100.00;101801.03;5076352;28;20288;-52
2022/07/28 03:31:13;;;;;;;3.37;1.37;;;;;;;19.09;100.00;101811.84;5075995;28;20302;-48
2022/07/28 03:33:38;;;;;;;4.47;1.33;;;;;;;19.11;100.00;101807.00;5075974;28;20045;-53
2022/07/28 03:36:12;;;;;;;5.30;1.17;;;;;;;19.13;100.00;101814.91;5074289;28;20300;-49
2022/07/28 03:38:49;;;;;;;6.27;2.10;;;;;;;18.96;100.00;101815.53;5072916;28;20034;-51
2022/07/28 03:41:17;;;;;;;3.20;1.53;;;;;;;18.96;100.00;101820.09;5075214;28;20270;-52
2022/07/28 03:43:43;;;;;;;2.63;1.47;;;;;;;18.95;100.00;101819.28;5077826;28;20328;-50
2022/07/28 03:46:09;;;;;;;7.35;1.58;;;;;;;18.96;100.00;101823.66;5073341;28;20313;-52
2022/07/28 03:48:34;;;;;;;5.72;1.58;;;;;;;18.95;100.00;101824.72;5079807;28;20045;-49
2022/07/28 03:51:00;;;;;;;4.67;1.40;;;;;;;18.92;100.00;101817.03;5077887;28;20025;-49
2022/07/28 03:53:27;;;;;;;5.63;1.38;;;;;;;18.88;100.00;101821.25;5077460;28;20040;-50
2022/07/28 03:55:53;;;;;;;3.23;1.63;;;;;;;18.63;100.00;101817.56;5074180;28;20044;-50
2022/07/28 03:58:21;;;;;;;4.47;1.63;;;;;;;18.77;100.00;101818.25;5080300;28;20282;-50
2022/07/28 04:00:48;;;;;;;6.93;1.47;;;;;;;18.81;100.00;101826.75;5076636;28;20036;-51
2022/07/28 04:03:14;;;;;;;6.10;1.50;;;;;;;18.76;100.00;101829.31;5077798;28;20307;-52
2022/07/28 04:05:39;;;;;;;9.88;4.03;;;;;;;18.47;100.00;101832.56;5074218;28;20308;-51
2022/07/28 04:08:05;;;;;;;7.23;2.10;;;;;;;18.75;100.00;101814.94;5084255;28;20089;-48
2022/07/28 04:10:31;;;;;;;5.47;2.07;;;;;;;18.80;100.00;101821.56;5077004;28;20040;-52
2022/07/28 04:12:57;;;;;;;5.33;1.70;;;;;;;18.75;100.00;101816.81;5074495;28;20029;-49
2022/07/28 04:15:25;;;;;;;8.10;3.27;;;;;;;18.76;100.00;101826.59;5074821;28;20033;-53
2022/07/28 04:17:52;;;;;;;7.87;2.40;;;;;;;18.76;100.00;101827.44;5074552;28;20039;-53
2022/07/28 04:20:19;;;;;;;24.40;8.37;;;;;;;18.63;100.00;101828.41;5076565;28;20269;-51
2022/07/28 04:22:46;;;;;;;7.83;3.30;;;;;;;18.18;100.00;101836.78;5076550;28;20305;-50
2022/07/28 04:25:13;;;;;;;13.97;2.53;;;;;;;18.38;100.00;101827.66;5075900;28;20292;-52
2022/07/28 04:27:40;;;;;;;13.40;3.33;;;;;;;18.40;100.00;101823.66;5077470;28;20265;-51
2022/07/28 04:30:09;;;;;;;17.37;7.43;;;;;;;18.59;100.00;101815.53;5075256;28;20266;-52
2022/07/28 04:32:35;;;;;;;14.83;5.73;;;;;;;18.11;100.00;101826.00;5076919;28;20328;-53
2022/07/28 04:35:00;;;;;;;17.83;6.38;;;;;;;18.15;100.00;101819.09;5077530;28;20263;-48
2022/07/28 04:37:26;;;;;;;35.57;14.07;;;;;;;18.20;100.00;101819.25;5076905;28;20075;-52
2022/07/28 04:39:52;;;;;;;32.58;15.82;;;;;;;18.04;100.00;101817.94;5073796;28;20024;-48
2022/07/28 04:42:18;;;;;;;17.17;8.75;;;;;;;17.99;100.00;101823.16;5074209;28;20114;-53
2022/07/28 04:44:44;;;;;;;13.23;5.37;;;;;;;18.00;100.00;101824.00;5075199;28;20112;-51
2022/07/28 04:47:10;;;;;;;;;;;;;;;18.40;100.00;101825.53;5070390;28;20101;-51
2022/07/28 04:49:36;;;;;;;21.07;7.57;;;;;;;18.10;100.00;101815.38;5079865;28;19916;-47
2022/07/28 04:52:02;;;;;;;7.55;2.63;;;;;;;18.26;100.00;101816.72;5081475;28;20273;-53
2022/07/28 04:54:27;;;;;;;10.02;3.85;;;;;;;18.24;100.00;101818.81;5076477;28;20032;-48
2022/07/28 04:56:53;;;;;;;10.37;3.97;;;;;;;18.32;100.00;101822.06;5077310;28;20037;-53
2022/07/28 04:59:18;;;;;;;5.72;1.67;;;;;;;18.27;100.00;101821.91;5071999;28;20108;-50
2022/07/28 05:01:44;;;;;;;7.50;2.40;;;;;;;18.26;100.00;101822.94;5074295;28;20045;-48
2022/07/28 05:04:09;;;;;;;8.73;3.10;;;;;;;18.27;100.00;101823.78;5077111;28;20033;-52
2022/07/28 05:06:35;;;;;;;5.37;1.77;;;;;;;18.14;100.00;101825.56;5080896;28;20063;-49
2022/07/28 05:09:01;;;;;;;6.45;2.17;;;;;;;18.20;100.00;101823.84;5077665;28;20032;-51
2022/07/28 05:11:26;;;;;;;9.57;2.72;;;;;;;18.20;100.00;101827.38;5077575;28;20062;-49
2022/07/28 05:13:52;;;;;;;8.80;2.40;;;;;;;18.26;100.00;101825.66;5076059;28;20093;-52
2022/07/28 05:16:18;;;;;;;9.90;2.80;;;;;;;18.55;100.00;101812.44;5076435;28;20052;-51
2022/07/28 05:18:44;;;;;;;;;;;;;;;18.68;100.00;101814.16;5081360;28;20328;-51
2022/07/28 05:21:10;;;;;;;3.60;1.60;;;;;;;18.43;100.00;101811.53;5073752;28;19916;-52
2022/07/28 05:23:35;;;;;;;8.57;2.47;;;;;;;18.28;100.00;101820.84;5078363;28;20044;-48
2022/07/28 05:26:00;;;;;;;2.38;1.38;;;;;;;18.18;100.00;101815.94;5072153;28;20031;-52
2022/07/28 05:28:26;;;;;;;6.47;2.03;;;;;;;18.31;100.00;101827.72;5083804;28;20036;-49
2022/07/28 05:30:52;;;;;;;9.88;2.10;;;;;;;18.30;100.00;101818.75;5075779;28;20029;-52
2022/07/28 05:33:17;;;;;;;9.13;1.67;;;;;;;18.61;100.00;101816.97;5078124;28;20040;-52
2022/07/28 05:35:51;;;;;;;9.02;2.60;;;;;;;18.68;100.00;101819.59;5076067;28;20041;-54
2022/07/28 05:38:17;;;;;;;7.67;2.20;;;;;;;18.69;100.00;101812.31;5073772;28;20041;-53
2022/07/28 05:40:42;;;;;;;5.05;1.45;;;;;;;18.76;100.00;101816.59;5069557;28;20310;-51
2022/07/28 05:43:08;;;;;;;7.37;1.90;;;;;;;18.85;100.00;101825.25;5078078;28;20052;-53
2022/07/28 05:45:33;;;;;;;7.97;2.05;;;;;;;18.81;100.00;101820.50;5073070;28;20068;-50
2022/07/28 05:47:59;;;;;;;4.70;1.77;;;;;;;18.86;100.00;101820.63;5073522;28;20025;-53
2022/07/28 05:50:24;;;;;;;7.13;2.00;;;;;;;18.81;100.00;101818.63;5078197;28;20124;-53
2022/07/28 05:52:50;;;;;;;7.00;2.05;;;;;;;18.64;100.00;101821.09;5075624;28;20033;-49
2022/07/28 05:55:17;;;;;;;6.72;2.20;;;;;;;18.84;100.00;101823.59;5079820;28;20036;-50
2022/07/28 05:57:43;;;;;;;10.00;2.53;;;;;;;18.58;100.00;101830.13;5071268;28;20068;-51
2022/07/28 06:00:14;;;;;;;4.30;2.10;;;;;;;18.91;100.00;101823.50;5076158;28;20037;-52
2022/07/28 06:02:44;;;;;;;6.93;2.50;;;;;;;18.96;100.00;101826.38;5074869;28;20033;-48
2022/07/28 06:05:10;;;;;;;9.67;1.93;;;;;;;18.70;100.00;101828.34;5075046;28;20266;-51
2022/07/28 06:07:36;;;;;;;7.00;1.40;;;;;;;18.52;100.00;101836.47;5090940;28;20301;-49
2022/07/28 06:10:03;;;;;;;7.28;2.00;;;;;;;18.95;100.00;101827.44;5077449;28;20033;-53
2022/07/28 06:12:29;;;;;;;7.10;1.37;;;;;;;19.15;100.00;101834.50;5069223;28;20035;-54
2022/07/28 06:14:54;;;;;;;7.67;1.80;;;;;;;19.18;100.00;101831.34;5076348;28;20292;-51
2022/07/28 06:17:20;;;;;;;4.20;2.20;;;;;;;19.46;100.00;101830.72;5072057;28;20025;-52
2022/07/28 06:19:45;;;;;;;6.32;1.50;;;;;;;19.52;100.00;101834.38;5078139;28;20037;-50
2022/07/28 06:22:11;;;;;;;5.33;1.90;;;;;;;19.58;100.00;101832.66;5075734;28;20033;-51
2022/07/28 06:24:37;;;;;;;7.20;1.70;;;;;;;19.83;100.00;101832.44;5074330;28;20029;-51
2022/07/28 06:27:02;;;;;;;2.85;1.27;;;;;;;20.03;100.00;101828.59;5072438;28;20028;-49
2022/07/28 06:29:30;;;;;;;8.35;1.67;;;;;;;20.07;100.00;101829.81;5076074;28;20090;-49
2022/07/28 06:31:56;;;;;;;11.00;2.00;;;;;;;20.17;100.00;101838.19;5069553;28;20056;-53
2022/07/28 06:34:22;;;;;;;7.77;3.03;;;;;;;20.32;100.00;101824.13;5071490;28;20265;-50
2022/07/28 06:36:48;;;;;;;3.42;1.40;;;;;;;20.58;100.00;101832.03;5077147;28;20301;-49
2022/07/28 06:39:13;;;;;;;2.90;1.33;;;;;;;20.66;100.00;101830.84;5078192;28;20060;-53
2022/07/28 06:41:42;;;;;;;3.50;1.30;;;;;;;20.93;100.00;101836.56;5070603;28;20037;-51
2022/07/28 06:44:08;;;;;;;6.17;1.20;;;;;;;20.92;100.00;101835.75;5067344;28;20064;-49
2022/07/28 06:46:34;;;;;;;5.65;1.48;;;;;;;21.10;100.00;101830.38;5065902;28;20286;-50
2022/07/28 06:49:00;;;;;;;7.53;1.35;;;;;;;21.30;100.00;101833.47;5071479;28;20028;-50
2022/07/28 06:51:26;;;;;;;;;;;;;;;21.40;100.00;101838.28;5072022;28;20041;-51
2022/07/28 06:53:51;;;;;;;6.37;0.87;;;;;;;21.49;100.00;101836.81;5070335;28;19944;-52
2022/07/28 06:56:18;;;;;;;3.10;1.20;;;;;;;21.66;100.00;101835.22;5070836;28;20057;-50
2022/07/28 06:58:44;;;;;;;6.63;1.97;;;;;;;21.45;100.00;101841.09;5071762;28;20025;-51
2022/07/28 07:01:09;;;;;;;4.50;1.00;;;;;;;21.68;100.00;101835.78;5068491;28;20025;-50
2022/07/28 07:03:35;;;;;;;3.97;1.13;;;;;;;21.78;100.00;101835.97;5068956;28;20064;-47
2022/07/28 07:06:00;;;;;;;10.68;1.13;;;;;;;21.67;100.00;101829.53;5066040;28;20060;-48
2022/07/28 07:08:26;;;;;;;5.10;1.40;;;;;;;21.47;100.00;101830.78;5065145;28;20108;-49
2022/07/28 07:10:51;;;;;;;3.90;1.30;;;;;;;21.72;100.00;101835.06;5066976;28;20041;-49
2022/07/28 07:13:16;;;;;;;7.03;2.53;;;;;;;21.80;100.00;101832.97;5070383;28;20040;-50
2022/07/28 07:15:42;;;;;;;4.15;1.33;;;;;;;21.69;100.00;101834.75;5061927;28;20041;-47
2022/07/28 07:18:08;;;;;;;6.53;1.43;;;;;;;21.75;100.00;101831.03;5062638;28;20037;-51
2022/07/28 07:20:33;;;;;;;3.85;1.25;;;;;;;21.28;100.00;101832.06;5065106;28;20278;-49
2022/07/28 07:22:59;;;;;;;5.13;1.10;;;;;;;21.11;100.00;101827.44;5062813;28;20079;-49
2022/07/28 07:25:24;;;;;;;4.45;1.05;;;;;;;21.25;100.00;101827.13;5068317;28;20068;-48
2022/07/28 07:27:50;;;;;;;2.58;1.40;;;;;;;21.18;100.00;101827.25;5072253;28;20033;-49
2022/07/28 07:30:16;;;;;;;3.70;1.15;;;;;;;21.08;100.00;101821.63;5067513;28;20037;-51
2022/07/28 07:32:42;;;;;;;8.85;1.45;;;;;;;21.73;100.00;101830.44;5067181;28;20048;-50
2022/07/28 07:35:07;;;;;;;5.63;0.95;;;;;;;21.03;100.00;101825.91;5065862;28;20558;-53
2022/07/28 07:37:33;;;;;;;5.07;1.00;;;;;;;21.52;100.00;101821.91;5070210;28;20382;-49
2022/07/28 07:40:00;;;;;;;2.83;1.10;;;;;;;21.52;100.00;101827.34;5068545;28;20043;-49
2022/07/28 07:42:25;;;;;;;6.23;1.53;;;;;;;21.02;100.00;101809.81;5066281;28;20064;-50
2022/07/28 07:44:51;;;;;;;5.57;1.77;;;;;;;21.23;100.00;101815.66;5069174;28;20060;-50
2022/07/28 07:47:17;;;;;;;5.00;2.53;;;;;;;21.67;100.00;101821.38;5070599;28;20045;-55
2022/07/28 07:49:43;;;;;;;4.20;1.53;;;;;;;21.68;100.00;101822.16;5077518;28;20079;-50
2022/07/28 07:52:09;;;;;;;10.00;2.53;;;;;;;21.45;100.00;101821.22;5071760;28;20029;-52
2022/07/28 07:54:34;;;;;;;5.90;1.43;;;;;;;21.72;100.00;101821.44;5083012;28;20110;-47
2022/07/28 07:57:00;;;;;;;3.13;1.33;;;;;;;22.01;99.26;101815.09;5079617;28;20281;-52
2022/07/28 07:59:25;;;;;;;6.38;1.20;;;;;;;22.30;99.37;101829.41;5080405;28;20316;-50
2022/07/28 08:01:54;;;;;;;4.60;1.42;;;;;;;22.19;97.61;101823.00;5076119;28;20064;-54
2022/07/28 08:04:21;;;;;;;5.17;3.03;;;;;;;22.46;96.51;101824.16;5077152;28;20033;-51
2022/07/28 08:06:48;;;;;;;5.20;1.80;;;;;;;22.35;96.19;101825.91;5078769;28;20033;-54
2022/07/28 08:09:15;;;;;;;3.97;1.87;;;;;;;22.40;96.29;101817.84;5073098;28;20032;-49
2022/07/28 08:11:40;;;;;;;4.80;1.13;;;;;;;22.52;95.49;101822.38;5069459;28;20033;-50
2022/07/28 08:14:06;;;;;;;5.65;1.35;;;;;;;22.65;96.25;101816.56;5072151;28;20075;-50
2022/07/28 08:16:32;;;;;;;5.10;1.33;;;;;;;22.69;96.04;101828.59;5069844;28;20041;-52
2022/07/28 08:18:57;;;;;;;3.65;1.33;;;;;;;22.70;95.43;101818.50;5071708;28;20025;-50
2022/07/28 08:21:26;;;;;;;8.98;2.13;;;;;;;22.60;93.95;101816.47;5070758;28;20037;-50
2022/07/28 08:23:54;;;;;;;60.57;26.73;;;;;;;22.77;93.48;101819.94;5072533;28;20029;-50
2022/07/28 08:26:23;;;;;;;8.30;3.07;;;;;;;22.77;90.07;101821.88;5071950;28;20025;-51
2022/07/28 08:28:49;;;;;;;7.60;2.67;;;;;;;22.90;86.34;101815.22;5080504;28;20020;-50
2022/07/28 08:31:16;;;;;;;10.32;4.00;;;;;;;22.87;84.50;101807.53;5073271;28;20040;-54
2022/07/28 08:33:42;;;;;;;31.20;12.57;;;;;;;22.91;83.55;101811.41;5075445;28;20037;-53
2022/07/28 08:36:08;;;;;;;;;;;;;;;22.78;86.33;101816.16;5076666;28;20047;-51
2022/07/28 08:38:34;;;;;;;10.33;4.70;;;;;;;22.97;88.03;101812.28;5072754;28;19921;-52
2022/07/28 08:41:03;;;;;;;7.57;1.63;;;;;;;23.02;88.43;101815.06;5071067;28;20062;-54
2022/07/28 08:43:33;;;;;;;6.03;1.40;;;;;;;22.99;84.99;101810.94;5068321;28;20120;-51
2022/07/28 08:46:01;;;;;;;5.73;1.10;;;;;;;22.96;82.13;101807.91;5073003;28;20103;-51
2022/07/28 08:48:32;;;;;;;9.70;1.40;;;;;;;22.97;81.73;101815.81;5071288;28;20044;-51
2022/07/28 08:51:01;;;;;;;3.13;1.03;;;;;;;23.21;80.02;101815.53;5074141;28;20032;-49
2022/07/28 08:53:29;;;;;;;4.30;1.17;;;;;;;23.15;78.58;101817.38;5070264;28;20576;-51
2022/07/28 08:56:03;;;;;;;1.43;0.73;;;;;;;23.42;79.08;101807.56;5070300;28;20036;-52
2022/07/28 08:58:30;;;;;;;5.07;0.90;;;;;;;23.41;76.93;101812.22;5072234;28;20033;-50
2022/07/28 09:00:56;;;;;;;3.23;0.93;;;;;;;23.44;77.60;101813.59;5072980;28;20043;-52
2022/07/28 09:03:22;;;;;;;1.80;0.63;;;;;;;23.41;75.58;101814.13;5073842;28;20060;-53
2022/07/28 09:05:49;;;;;;;;;;;;;;;23.22;76.86;101808.19;5069954;28;20033;-54
2022/07/28 09:08:18;;;;;;;4.67;0.80;;;;;;;23.26;80.13;101807.41;5070957;28;19912;-53
2022/07/28 09:10:45;;;;;;;2.10;0.90;;;;;;;23.73;78.96;101808.66;5069328;28;20028;-56
2022/07/28 09:13:10;;;;;;;3.57;0.70;;;;;;;23.65;78.38;101805.56;5074756;28;20055;-48
2022/07/28 09:15:36;;;;;;;2.90;0.98;;;;;;;23.92;73.95;101811.78;5070616;28;20037;-53
2022/07/28 09:18:02;;;;;;;3.20;0.77;;;;;;;24.06;67.90;101816.84;5075486;28;20036;-48
2022/07/28 09:20:28;;;;;;;2.83;0.87;;;;;;;24.12;69.60;101814.97;5070064;28;20037;-55
2022/07/28 09:22:59;;;;;;;;;;;;;;;24.43;67.99;101809.66;5069181;28;20032;-52
2022/07/28 09:25:26;;;;;;;5.00;1.17;;;;;;;24.71;66.99;101815.78;5066590;28;19939;-53
2022/07/28 09:27:52;;;;;;;5.33;1.10;;;;;;;24.53;64.98;101811.63;5071024;28;20045;-52
2022/07/28 09:30:32;;;;;;;4.22;0.82;;;;;;;24.30;67.68;101805.50;5079807;28;20029;-52
2022/07/28 09:33:19;;;;;;;3.50;0.80;;;;;;;24.73;66.48;101814.44;5074587;28;20029;-53
2022/07/28 09:35:56;;;;;;;20.33;8.38;;;;;;;24.87;68.00;101813.97;5069074;28;20029;-51
2022/07/28 09:38:26;;;;;;;3.77;1.30;;;;;;;25.58;61.33;101815.19;5071890;28;20029;-49
2022/07/28 09:41:03;;;;;;;20.13;9.03;;;;;;;26.16;57.96;101814.06;5066718;28;20083;-48
2022/07/28 09:43:36;;;;;;;7.27;2.20;;;;;;;26.06;56.26;101805.81;5067351;28;20071;-52
2022/07/28 09:46:06;;;;;;;19.33;9.47;;;;;;;26.83;53.59;101801.19;5069765;28;20064;-50
2022/07/28 09:48:32;;;;;;;6.57;1.83;;;;;;;27.31;51.42;101798.72;5072740;28;20053;-52
2022/07/28 09:51:10;;;;;;;5.50;2.13;;;;;;;27.68;49.90;101795.66;5071520;28;20033;-54
2022/07/28 09:53:36;;;;;;;3.50;1.53;;;;;;;28.25;48.22;101801.44;5072017;28;20046;-50
2022/07/28 09:56:02;;;;;;;9.93;3.53;;;;;;;28.91;45.86;101803.66;5078620;28;20052;-54
2022/07/28 09:58:28;;;;;;;4.25;1.30;;;;;;;28.83;45.89;101799.63;5079547;28;20025;-54
2022/07/28 10:01:11;;;;;;;6.65;1.45;;;;;;;29.16;43.55;101793.38;5077940;28;20029;-49
2022/07/28 10:03:44;;;;;;;2.80;0.80;;;;;;;29.81;41.77;101791.75;5071434;28;20029;-51
2022/07/28 10:06:15;;;;;;;1.83;0.95;;;;;;;30.02;40.54;101796.91;5065171;28;20033;-52
2022/07/28 10:08:46;;;;;;;6.13;1.55;;;;;;;30.78;38.69;101792.84;5076777;28;20039;-50
2022/07/28 10:11:14;;;;;;;2.42;0.75;;;;;;;31.60;37.44;101783.72;5070551;28;20025;-53
2022/07/28 10:13:54;;;;;;;2.78;1.10;;;;;;;31.59;36.50;101788.44;5070692;28;20032;-49
2022/07/28 10:16:22;;;;;;;2.88;1.00;;;;;;;32.44;35.76;101783.91;5072063;28;20056;-54
2022/07/28 10:18:48;;;;;;;3.53;0.85;;;;;;;32.51;34.45;101788.16;5071136;28;20051;-52
2022/07/28 10:21:17;;;;;;;1.83;0.95;;;;;;;32.71;35.03;101781.97;5073017;28;20024;-51
2022/07/28 10:23:53;;;;;;;3.88;1.25;;;;;;;32.98;33.93;101777.28;5073565;28;20028;-52
2022/07/28 10:26:20;;;;;;;1.58;0.80;;;;;;;32.98;33.76;101782.81;5069749;28;20044;-47
2022/07/28 10:28:49;;;;;;;3.40;1.00;;;;;;;33.49;32.58;101782.31;5062906;28;20049;-54
2022/07/28 10:31:49;;;;;;;3.33;1.20;;;;;;;34.05;31.54;101775.09;5062537;28;20041;-52
2022/07/28 10:34:21;;;;;;;4.68;1.85;;;;;;;34.46;30.51;101766.00;5068664;28;20071;-49
2022/07/28 10:36:49;;;;;;;2.63;0.98;;;;;;;33.86;30.05;101771.53;5071261;28;20040;-51
2022/07/28 10:39:18;;;;;;;3.92;1.52;;;;;;;33.95;30.99;101763.19;5066731;28;20037;-52
2022/07/28 10:41:44;;;;;;;2.47;1.50;;;;;;;33.91;30.84;101756.69;5073372;28;20032;-51
2022/07/28 10:44:12;;;;;;;4.70;1.17;;;;;;;33.31;31.49;101759.31;5068814;28;20071;-51
2022/07/28 10:46:41;;;;;;;5.20;1.05;;;;;;;33.84;30.73;101753.63;5069984;28;20112;-54
2022/07/28 10:49:07;;;;;;;1.92;0.90;;;;;;;34.42;29.96;101756.72;5063033;28;20045;-50
2022/07/28 10:51:33;;;;;;;6.72;2.53;;;;;;;35.00;30.27;101763.63;5065583;28;20044;-53
2022/07/28 10:54:06;;;;;;;3.17;1.35;;;;;;;35.06;30.07;101762.28;5066685;28;20052;-54
2022/07/28 10:56:32;;;;;;;3.65;1.17;;;;;;;35.30;28.96;101766.28;5069136;28;20029;-54
2022/07/28 10:59:35;;;;;;;2.05;0.65;;;;;;;35.48;28.16;101766.09;5071403;28;20029;-49
2022/07/28 11:02:01;;;;;;;5.68;1.50;;;;;;;35.97;27.54;101754.19;5058172;28;20036;-54
2022/07/28 11:04:47;;;;;;;5.78;2.50;;;;;;;36.55;27.04;101756.81;5078768;28;20041;-51
2022/07/28 11:07:18;;;;;;;3.97;1.80;;;;;;;36.14;27.76;101759.56;5070009;28;20120;-51
2022/07/28 11:09:46;;;;;;;2.83;1.23;;;;;;;35.79;27.74;101761.97;5074337;28;20032;-52
2022/07/28 11:12:14;;;;;;;10.57;5.35;;;;;;;36.41;26.59;101767.50;5074594;28;20049;-52
2022/07/28 11:14:41;;;;;;;2.53;1.27;;;;;;;36.36;26.69;101768.56;5068492;28;20074;-51
2022/07/28 11:17:06;;;;;;;8.82;5.60;;;;;;;36.90;28.37;101763.75;5074052;28;20028;-54
2022/07/28 11:19:43;;;;;;;4.03;1.80;;;;;;;37.01;26.34;101762.13;5079952;28;20063;-54
2022/07/28 11:22:15;;;;;;;5.07;2.72;;;;;;;37.16;27.49;101760.53;5070349;28;20092;-50
2022/07/28 11:24:57;;;;;;;11.63;6.10;;;;;;;37.34;25.75;101757.41;5075183;28;20033;-50